This is the latest recevied weather packets stored in our database for station/object KT5AL. If no packets are shown the sender has not sent any weather packets the latest 1 day(s).
| Time | Temp. | Humidity | Pressure | Rain* | Wind** | Luminosity | Snow |
|---|---|---|---|---|---|---|---|
| 1778024408 | 21.67° C | 76% | 1005.3 hPa | 0 mm | 6.71 m/s, 337° | - | - |
| 1778024125 | 21.67° C | 77% | 1004.9 hPa | 0 mm | 5.36 m/s, 337° | - | - |
| 1778023805 | 21.67° C | 75% | 1004.9 hPa | 0 mm | 5.81 m/s, 337° | - | - |
| 1778023510 | 21.67° C | 76% | 1004.9 hPa | 0 mm | 4.92 m/s, 337° | - | - |
| 1778023206 | 22.22° C | 76% | 1004.9 hPa | 0 mm | 4.02 m/s, 337° | - | - |
| 1778022908 | 22.22° C | 73% | 1004.3 hPa | 0 mm | 4.92 m/s, 315° | - | - |
| 1778022604 | 22.78° C | 73% | 1004.3 hPa | 0 mm | 6.26 m/s, 337° | - | - |
| 1778022307 | 22.78° C | 73% | 1004.3 hPa | 0 mm | 5.81 m/s, 337° | - | - |
| 1778022004 | 23.33° C | 71% | 1004.3 hPa | 0 mm | 6.26 m/s, 337° | - | - |
| 1778021703 | 23.89° C | 67% | 1003.9 hPa | 0 mm | 5.36 m/s, 337° | - | - |
| 1778021405 | 23.89° C | 65% | 1003.9 hPa | 0 mm | 6.71 m/s, 337° | - | - |
| 1778021103 | 24.44° C | 66% | 1003.3 hPa | 0 mm | 7.15 m/s, 337° | - | - |
| 1778020806 | 24.44° C | 67% | 1003.3 hPa | 0 mm | 5.36 m/s, 315° | - | - |
| 1778020502 | 25° C | 66% | 1002.9 hPa | 0 mm | 6.71 m/s, 315° | - | - |
| 1778020216 | 25° C | 66% | 1002.9 hPa | 0 mm | 5.36 m/s, 337° | - | - |
| 1778019902 | 25° C | 66% | 1002.2 hPa | 0 mm | 5.36 m/s, 315° | - | - |
| 1778019605 | 25.56° C | 64% | 1002.2 hPa | 0 mm | 5.36 m/s, 315° | - | - |
| 1778019303 | 26.11° C | 62% | 1002.2 hPa | 0 mm | 6.26 m/s, 337° | - | - |
| 1778019006 | 26.11° C | 63% | 1002.2 hPa | 0 mm | 4.92 m/s, 292° | - | - |
| 1778018703 | 26.11° C | 62% | 1001.6 hPa | 0 mm | 4.92 m/s, 337° | - | - |
| 1778018406 | 26.67° C | 62% | 1001.6 hPa | 0 mm | 4.92 m/s, 315° | - | - |
| 1778018103 | 27.22° C | 59% | 1001.6 hPa | 0 mm | 5.36 m/s, 315° | - | - |
| 1778017806 | 27.22° C | 59% | 1001.6 hPa | 0 mm | 4.47 m/s, 315° | - | - |
| 1778017503 | 27.22° C | 56% | 1001.9 hPa | 0 mm | 5.81 m/s, 315° | - | - |
| 1778017232 | 26.67° C | 56% | 1001.9 hPa | 0 mm | 5.36 m/s, 315° | - | - |
* Rain latest hour (hover to see other rain measurements)
** Current wind speed in m/s (hover to see current wind gust speed)